sensor_id;sensor_type;location;lat;lon;timestamp;temperature;humidity
55331;DHT22;58851;42.984;20.336;2022-08-19T00:01:51;486.90;2380.80
55331;DHT22;58851;42.984;20.336;2022-08-19T00:04:20;486.90;2380.80
55331;DHT22;58851;42.984;20.336;2022-08-19T00:06:47;487.00;2380.80
55331;DHT22;58851;42.984;20.336;2022-08-19T00:09:15;487.00;2380.80
55331;DHT22;58851;42.984;20.336;2022-08-19T00:11:43;487.00;2380.80
55331;DHT22;58851;42.984;20.336;2022-08-19T00:14:11;486.70;2380.80
55331;DHT22;58851;42.984;20.336;2022-08-19T00:16:38;486.70;2380.80
55331;DHT22;58851;42.984;20.336;2022-08-19T00:19:05;486.70;2380.80
55331;DHT22;58851;42.984;20.336;2022-08-19T00:21:31;486.60;2380.80
55331;DHT22;58851;42.984;20.336;2022-08-19T00:23:57;486.60;2380.80
55331;DHT22;58851;42.984;20.336;2022-08-19T00:26:27;486.60;2380.80
55331;DHT22;58851;42.984;20.336;2022-08-19T00:28:54;486.70;2380.80
55331;DHT22;58851;42.984;20.336;2022-08-19T00:31:20;486.70;2380.80
55331;DHT22;58851;42.984;20.336;2022-08-19T00:33:46;486.70;2380.80
55331;DHT22;58851;42.984;20.336;2022-08-19T00:36:13;486.60;2380.80
55331;DHT22;58851;42.984;20.336;2022-08-19T00:38:39;486.60;2380.80
55331;DHT22;58851;42.984;20.336;2022-08-19T00:41:12;486.60;2380.80
55331;DHT22;58851;42.984;20.336;2022-08-19T00:43:38;486.40;2380.80
55331;DHT22;58851;42.984;20.336;2022-08-19T00:46:04;486.40;2380.80
55331;DHT22;58851;42.984;20.336;2022-08-19T00:48:32;461.70;2380.80
55331;DHT22;58851;42.984;20.336;2022-08-19T00:50:59;461.70;2380.80
55331;DHT22;58851;42.984;20.336;2022-08-19T00:53:27;461.50;2380.80
55331;DHT22;58851;42.984;20.336;2022-08-19T00:55:56;461.70;2380.80
55331;DHT22;58851;42.984;20.336;2022-08-19T00:58:26;461.70;2380.80
55331;DHT22;58851;42.984;20.336;2022-08-19T01:00:54;461.60;2380.80
55331;DHT22;58851;42.984;20.336;2022-08-19T01:03:22;461.60;2380.80
55331;DHT22;58851;42.984;20.336;2022-08-19T01:05:51;461.70;2380.80
55331;DHT22;58851;42.984;20.336;2022-08-19T01:08:18;461.70;2380.80
55331;DHT22;58851;42.984;20.336;2022-08-19T01:10:55;461.70;2380.80
55331;DHT22;58851;42.984;20.336;2022-08-19T01:13:30;461.50;2380.80
55331;DHT22;58851;42.984;20.336;2022-08-19T01:16:02;461.30;2380.80
55331;DHT22;58851;42.984;20.336;2022-08-19T01:18:29;461.10;2380.80
55331;DHT22;58851;42.984;20.336;2022-08-19T01:21:06;461.30;2380.80
55331;DHT22;58851;42.984;20.336;2022-08-19T01:23:33;461.40;2380.80
55331;DHT22;58851;42.984;20.336;2022-08-19T01:26:27;461.30;2380.80
55331;DHT22;58851;42.984;20.336;2022-08-19T01:28:55;461.30;2380.80
55331;DHT22;58851;42.984;20.336;2022-08-19T01:31:25;461.30;2380.80
55331;DHT22;58851;42.984;20.336;2022-08-19T01:33:52;461.20;2380.80
55331;DHT22;58851;42.984;20.336;2022-08-19T01:38:57;461.10;2380.80
55331;DHT22;58851;42.984;20.336;2022-08-19T01:41:23;461.10;2380.80
55331;DHT22;58851;42.984;20.336;2022-08-19T01:43:50;461.20;2380.80
55331;DHT22;58851;42.984;20.336;2022-08-19T01:46:17;461.30;2380.80
55331;DHT22;58851;42.984;20.336;2022-08-19T01:48:44;461.20;2380.80
55331;DHT22;58851;42.984;20.336;2022-08-19T01:51:11;461.10;2380.80
55331;DHT22;58851;42.984;20.336;2022-08-19T01:53:38;461.10;2380.80
55331;DHT22;58851;42.984;20.336;2022-08-19T01:56:05;461.00;2380.80
55331;DHT22;58851;42.984;20.336;2022-08-19T01:58:41;461.00;2380.80
55331;DHT22;58851;42.984;20.336;2022-08-19T02:01:12;461.00;2380.80
55331;DHT22;58851;42.984;20.336;2022-08-19T02:03:39;461.00;2380.80
55331;DHT22;58851;42.984;20.336;2022-08-19T02:06:05;461.00;2380.80
55331;DHT22;58851;42.984;20.336;2022-08-19T02:08:33;461.00;2380.80
55331;DHT22;58851;42.984;20.336;2022-08-19T02:11:00;460.90;2380.80
55331;DHT22;58851;42.984;20.336;2022-08-19T02:13:26;460.80;2380.80
55331;DHT22;58851;42.984;20.336;2022-08-19T02:15:52;436.10;2355.20
55331;DHT22;58851;42.984;20.336;2022-08-19T02:18:18;436.10;2355.20
55331;DHT22;58851;42.984;20.336;2022-08-19T02:20:45;436.10;2355.20
55331;DHT22;58851;42.984;20.336;2022-08-19T02:23:13;460.80;2380.80
55331;DHT22;58851;42.984;20.336;2022-08-19T02:25:39;436.00;2355.20
55331;DHT22;58851;42.984;20.336;2022-08-19T02:28:05;436.10;2355.20
55331;DHT22;58851;42.984;20.336;2022-08-19T02:30:32;436.10;2355.20
55331;DHT22;58851;42.984;20.336;2022-08-19T02:32:58;436.00;2355.20
55331;DHT22;58851;42.984;20.336;2022-08-19T02:35:23;436.00;2355.20
55331;DHT22;58851;42.984;20.336;2022-08-19T02:37:49;436.00;2355.20
55331;DHT22;58851;42.984;20.336;2022-08-19T02:40:34;436.10;2355.20
55331;DHT22;58851;42.984;20.336;2022-08-19T02:43:04;436.10;2355.20
55331;DHT22;58851;42.984;20.336;2022-08-19T02:45:37;436.00;2355.20
55331;DHT22;58851;42.984;20.336;2022-08-19T02:48:04;436.00;2355.20
55331;DHT22;58851;42.984;20.336;2022-08-19T02:50:31;435.90;2355.20
55331;DHT22;58851;42.984;20.336;2022-08-19T02:52:57;435.80;2355.20
55331;DHT22;58851;42.984;20.336;2022-08-19T02:55:23;435.80;2355.20
55331;DHT22;58851;42.984;20.336;2022-08-19T02:57:49;435.80;2355.20
55331;DHT22;58851;42.984;20.336;2022-08-19T03:00:15;435.80;2355.20
55331;DHT22;58851;42.984;20.336;2022-08-19T03:02:41;435.80;2355.20
55331;DHT22;58851;42.984;20.336;2022-08-19T03:05:09;435.70;2355.20
55331;DHT22;58851;42.984;20.336;2022-08-19T03:07:35;435.70;2355.20
55331;DHT22;58851;42.984;20.336;2022-08-19T03:10:01;435.80;2355.20
55331;DHT22;58851;42.984;20.336;2022-08-19T03:12:27;435.80;2355.20
55331;DHT22;58851;42.984;20.336;2022-08-19T03:14:53;435.70;2355.20
55331;DHT22;58851;42.984;20.336;2022-08-19T03:17:19;435.80;2355.20
55331;DHT22;58851;42.984;20.336;2022-08-19T03:19:45;435.80;2355.20
55331;DHT22;58851;42.984;20.336;2022-08-19T03:22:11;435.70;2355.20
55331;DHT22;58851;42.984;20.336;2022-08-19T03:24:39;435.70;2355.20
55331;DHT22;58851;42.984;20.336;2022-08-19T03:27:04;435.70;2355.20
55331;DHT22;58851;42.984;20.336;2022-08-19T03:29:31;435.70;2355.20
55331;DHT22;58851;42.984;20.336;2022-08-19T03:32:02;435.60;2355.20
55331;DHT22;58851;42.984;20.336;2022-08-19T03:34:31;435.50;2355.20
55331;DHT22;58851;42.984;20.336;2022-08-19T03:36:59;435.50;2355.20
55331;DHT22;58851;42.984;20.336;2022-08-19T03:39:26;435.40;2355.20
55331;DHT22;58851;42.984;20.336;2022-08-19T03:41:54;435.50;2355.20
55331;DHT22;58851;42.984;20.336;2022-08-19T03:44:23;435.50;2355.20
55331;DHT22;58851;42.984;20.336;2022-08-19T03:46:52;435.40;2355.20
55331;DHT22;58851;42.984;20.336;2022-08-19T03:49:20;435.40;2355.20
55331;DHT22;58851;42.984;20.336;2022-08-19T03:51:48;435.30;2355.20
55331;DHT22;58851;42.984;20.336;2022-08-19T03:54:18;435.40;2355.20
55331;DHT22;58851;42.984;20.336;2022-08-19T03:56:45;435.30;2355.20
55331;DHT22;58851;42.984;20.336;2022-08-19T03:59:15;435.30;2355.20
55331;DHT22;58851;42.984;20.336;2022-08-19T04:01:41;435.30;2355.20
55331;DHT22;58851;42.984;20.336;2022-08-19T04:04:08;435.30;2355.20
55331;DHT22;58851;42.984;20.336;2022-08-19T04:06:35;435.30;2355.20
55331;DHT22;58851;42.984;20.336;2022-08-19T04:09:03;435.30;2355.20
55331;DHT22;58851;42.984;20.336;2022-08-19T04:11:36;435.30;2355.20
55331;DHT22;58851;42.984;20.336;2022-08-19T04:14:06;435.40;2355.20
55331;DHT22;58851;42.984;20.336;2022-08-19T04:16:33;435.40;2355.20
55331;DHT22;58851;42.984;20.336;2022-08-19T04:19:04;435.30;2355.20
55331;DHT22;58851;42.984;20.336;2022-08-19T04:21:29;435.30;2355.20
55331;DHT22;58851;42.984;20.336;2022-08-19T04:23:57;435.30;2355.20
55331;DHT22;58851;42.984;20.336;2022-08-19T04:26:26;435.30;2355.20
55331;DHT22;58851;42.984;20.336;2022-08-19T04:28:53;435.30;2355.20
55331;DHT22;58851;42.984;20.336;2022-08-19T04:31:25;435.40;2355.20
55331;DHT22;58851;42.984;20.336;2022-08-19T04:33:58;435.40;2355.20
55331;DHT22;58851;42.984;20.336;2022-08-19T04:36:29;435.40;2355.20
55331;DHT22;58851;42.984;20.336;2022-08-19T04:38:57;435.50;2355.20
55331;DHT22;58851;42.984;20.336;2022-08-19T04:41:24;435.30;2355.20
55331;DHT22;58851;42.984;20.336;2022-08-19T04:44:09;435.40;2355.20
55331;DHT22;58851;42.984;20.336;2022-08-19T04:46:36;435.50;2355.20
55331;DHT22;58851;42.984;20.336;2022-08-19T04:49:04;435.50;2355.20
55331;DHT22;58851;42.984;20.336;2022-08-19T04:51:32;435.60;2355.20
55331;DHT22;58851;42.984;20.336;2022-08-19T04:53:58;435.60;2355.20
55331;DHT22;58851;42.984;20.336;2022-08-19T04:56:25;435.70;2355.20
55331;DHT22;58851;42.984;20.336;2022-08-19T04:58:53;435.70;2355.20
55331;DHT22;58851;42.984;20.336;2022-08-19T05:01:28;435.80;2355.20
55331;DHT22;58851;42.984;20.336;2022-08-19T05:03:55;435.90;2355.20
55331;DHT22;58851;42.984;20.336;2022-08-19T05:06:22;436.00;2355.20
55331;DHT22;58851;42.984;20.336;2022-08-19T05:08:49;436.00;2355.20
55331;DHT22;58851;42.984;20.336;2022-08-19T05:11:23;436.00;2355.20
55331;DHT22;58851;42.984;20.336;2022-08-19T05:13:50;436.10;2355.20
55331;DHT22;58851;42.984;20.336;2022-08-19T05:16:18;460.80;2380.80
55331;DHT22;58851;42.984;20.336;2022-08-19T05:18:44;460.90;2380.80
55331;DHT22;58851;42.984;20.336;2022-08-19T05:21:29;460.90;2380.80
55331;DHT22;58851;42.984;20.336;2022-08-19T05:24:15;460.90;2380.80
55331;DHT22;58851;42.984;20.336;2022-08-19T05:26:43;461.00;2380.80
55331;DHT22;58851;42.984;20.336;2022-08-19T05:29:16;461.00;2380.80
55331;DHT22;58851;42.984;20.336;2022-08-19T05:31:42;461.20;2380.80
55331;DHT22;58851;42.984;20.336;2022-08-19T05:34:08;461.20;2380.80
55331;DHT22;58851;42.984;20.336;2022-08-19T05:36:42;461.40;2380.80
55331;DHT22;58851;42.984;20.336;2022-08-19T05:39:12;461.40;2380.80
55331;DHT22;58851;42.984;20.336;2022-08-19T05:41:42;461.40;2380.80
55331;DHT22;58851;42.984;20.336;2022-08-19T05:44:08;461.50;2380.80
55331;DHT22;58851;42.984;20.336;2022-08-19T05:46:36;461.70;2380.80
55331;DHT22;58851;42.984;20.336;2022-08-19T05:49:04;461.70;2380.80
55331;DHT22;58851;42.984;20.336;2022-08-19T05:51:31;461.70;2380.80
55331;DHT22;58851;42.984;20.336;2022-08-19T05:53:58;461.70;2380.80
55331;DHT22;58851;42.984;20.336;2022-08-19T05:56:23;461.70;2380.80
55331;DHT22;58851;42.984;20.336;2022-08-19T05:58:49;486.50;2380.80
55331;DHT22;58851;42.984;20.336;2022-08-19T06:01:17;486.50;2380.80
55331;DHT22;58851;42.984;20.336;2022-08-19T06:03:44;486.60;2380.80
55331;DHT22;58851;42.984;20.336;2022-08-19T06:06:12;486.60;2380.80
55331;DHT22;58851;42.984;20.336;2022-08-19T06:08:39;486.60;2380.80
55331;DHT22;58851;42.984;20.336;2022-08-19T06:11:21;486.70;2380.80
55331;DHT22;58851;42.984;20.336;2022-08-19T06:13:49;486.80;2380.80
55331;DHT22;58851;42.984;20.336;2022-08-19T06:16:19;486.90;2380.80
55331;DHT22;58851;42.984;20.336;2022-08-19T06:18:55;486.90;2380.80
55331;DHT22;58851;42.984;20.336;2022-08-19T06:21:24;487.00;2380.80
55331;DHT22;58851;42.984;20.336;2022-08-19T06:23:51;487.10;2380.80
55331;DHT22;58851;42.984;20.336;2022-08-19T06:26:19;487.20;2380.80
55331;DHT22;58851;42.984;20.336;2022-08-19T06:28:46;487.30;2380.80
55331;DHT22;58851;42.984;20.336;2022-08-19T06:31:17;512.10;2355.20
55331;DHT22;58851;42.984;20.336;2022-08-19T06:33:44;512.20;2355.20
55331;DHT22;58851;42.984;20.336;2022-08-19T06:36:19;512.40;2304.00
55331;DHT22;58851;42.984;20.336;2022-08-19T06:38:45;512.30;2329.60
55331;DHT22;58851;42.984;20.336;2022-08-19T06:41:11;512.50;2304.00
55331;DHT22;58851;42.984;20.336;2022-08-19T06:43:37;512.70;2252.80
55331;DHT22;58851;42.984;20.336;2022-08-19T06:46:03;512.90;2252.80
55331;DHT22;58851;42.984;20.336;2022-08-19T06:48:30;537.60;2252.80
55331;DHT22;58851;42.984;20.336;2022-08-19T06:50:57;537.80;2201.60
55331;DHT22;58851;42.984;20.336;2022-08-19T06:53:22;537.80;2227.20
55331;DHT22;58851;42.984;20.336;2022-08-19T06:55:48;538.00;2252.80
55331;DHT22;58851;42.984;20.336;2022-08-19T06:58:20;538.10;2176.00
55331;DHT22;58851;42.984;20.336;2022-08-19T07:00:46;538.20;2176.00
55331;DHT22;58851;42.984;20.336;2022-08-19T07:03:12;538.30;2150.40
55331;DHT22;58851;42.984;20.336;2022-08-19T07:05:41;538.40;2124.80
55331;DHT22;58851;42.984;20.336;2022-08-19T07:08:07;563.20;2099.20
55331;DHT22;58851;42.984;20.336;2022-08-19T07:10:33;563.30;2150.40
55331;DHT22;58851;42.984;20.336;2022-08-19T07:13:00;563.50;2124.80
55331;DHT22;58851;42.984;20.336;2022-08-19T07:15:26;563.50;2073.60
55331;DHT22;58851;42.984;20.336;2022-08-19T07:17:52;563.60;2048.00
55331;DHT22;58851;42.984;20.336;2022-08-19T07:20:18;563.70;1996.80
55331;DHT22;58851;42.984;20.336;2022-08-19T07:22:44;563.90;1996.80
55331;DHT22;58851;42.984;20.336;2022-08-19T07:25:11;564.00;2022.40
55331;DHT22;58851;42.984;20.336;2022-08-19T07:27:38;564.10;1971.20
55331;DHT22;58851;42.984;20.336;2022-08-19T07:30:06;588.80;1996.80
55331;DHT22;58851;42.984;20.336;2022-08-19T07:32:32;588.80;1971.20
55331;DHT22;58851;42.984;20.336;2022-08-19T07:34:58;588.90;1971.20
55331;DHT22;58851;42.984;20.336;2022-08-19T07:37:25;589.00;1920.00
55331;DHT22;58851;42.984;20.336;2022-08-19T07:39:54;589.10;1894.40
55331;DHT22;58851;42.984;20.336;2022-08-19T07:42:19;589.30;1920.00
55331;DHT22;58851;42.984;20.336;2022-08-19T07:44:46;589.30;1894.40
55331;DHT22;58851;42.984;20.336;2022-08-19T07:47:12;589.40;1868.80
55331;DHT22;58851;42.984;20.336;2022-08-19T07:49:41;589.70;1843.20
55331;DHT22;58851;42.984;20.336;2022-08-19T07:52:09;614.40;1817.60
55331;DHT22;58851;42.984;20.336;2022-08-19T07:54:37;614.50;1792.00
55331;DHT22;58851;42.984;20.336;2022-08-19T07:57:04;614.50;1792.00
55331;DHT22;58851;42.984;20.336;2022-08-19T07:59:31;614.60;1792.00
55331;DHT22;58851;42.984;20.336;2022-08-19T08:01:57;614.80;1792.00
55331;DHT22;58851;42.984;20.336;2022-08-19T08:04:26;614.80;1766.40
55331;DHT22;58851;42.984;20.336;2022-08-19T08:07:11;614.90;1689.60
55331;DHT22;58851;42.984;20.336;2022-08-19T08:09:55;615.00;1664.00
55331;DHT22;58851;42.984;20.336;2022-08-19T08:12:27;615.00;1638.40
55331;DHT22;58851;42.984;20.336;2022-08-19T08:14:57;615.20;1612.80
55331;DHT22;58851;42.984;20.336;2022-08-19T08:17:27;615.30;1612.80
55331;DHT22;58851;42.984;20.336;2022-08-19T08:19:53;640.30;1638.40
55331;DHT22;58851;42.984;20.336;2022-08-19T08:22:21;640.50;1612.80
55331;DHT22;58851;42.984;20.336;2022-08-19T08:27:42;640.70;1510.40
55331;DHT22;58851;42.984;20.336;2022-08-19T08:30:21;640.90;1536.00
55331;DHT22;58851;42.984;20.336;2022-08-19T08:32:48;665.60;1510.40
55331;DHT22;58851;42.984;20.336;2022-08-19T08:35:16;665.80;1510.40
55331;DHT22;58851;42.984;20.336;2022-08-19T08:37:44;665.90;1510.40
55331;DHT22;58851;42.984;20.336;2022-08-19T08:48:46;691.40;1510.40
55331;DHT22;58851;42.984;20.336;2022-08-19T08:51:37;691.50;1484.80
55331;DHT22;58851;42.984;20.336;2022-08-19T08:54:07;691.70;1408.00
55331;DHT22;58851;42.984;20.336;2022-08-19T08:56:33;691.70;1408.00
55331;DHT22;58851;42.984;20.336;2022-08-19T08:59:05;691.80;1408.00
55331;DHT22;58851;42.984;20.336;2022-08-19T09:01:34;692.10;1433.60
55331;DHT22;58851;42.984;20.336;2022-08-19T09:04:04;716.80;1382.40
55331;DHT22;58851;42.984;20.336;2022-08-19T09:07:26;716.90;1459.20
55331;DHT22;58851;42.984;20.336;2022-08-19T09:09:34;717.00;1382.40
55331;DHT22;58851;42.984;20.336;2022-08-19T09:17:16;717.60;1382.40
55331;DHT22;58851;42.984;20.336;2022-08-19T09:19:57;742.40;1382.40
55331;DHT22;58851;42.984;20.336;2022-08-19T09:22:24;742.50;1382.40
55331;DHT22;58851;42.984;20.336;2022-08-19T09:24:53;742.70;1408.00
55331;DHT22;58851;42.984;20.336;2022-08-19T09:27:20;742.80;1382.40
55331;DHT22;58851;42.984;20.336;2022-08-19T09:29:46;742.90;1331.20
55331;DHT22;58851;42.984;20.336;2022-08-19T09:32:14;743.10;1305.60
55331;DHT22;58851;42.984;20.336;2022-08-19T09:34:40;743.10;1305.60
55331;DHT22;58851;42.984;20.336;2022-08-19T09:37:07;743.30;1280.00
55331;DHT22;58851;42.984;20.336;2022-08-19T09:39:33;768.00;1254.40
55331;DHT22;58851;42.984;20.336;2022-08-19T09:41:59;768.10;1305.60
55331;DHT22;58851;42.984;20.336;2022-08-19T09:44:24;768.40;1228.80
55331;DHT22;58851;42.984;20.336;2022-08-19T09:46:50;768.30;1228.80
55331;DHT22;58851;42.984;20.336;2022-08-19T09:49:18;768.50;1228.80
55331;DHT22;58851;42.984;20.336;2022-08-19T09:51:45;768.70;1228.80
55331;DHT22;58851;42.984;20.336;2022-08-19T09:54:12;768.90;1152.00
55331;DHT22;58851;42.984;20.336;2022-08-19T09:56:39;793.60;1177.60
55331;DHT22;58851;42.984;20.336;2022-08-19T09:59:05;793.90;1177.60
55331;DHT22;58851;42.984;20.336;2022-08-19T10:01:33;794.10;1203.20
55331;DHT22;58851;42.984;20.336;2022-08-19T10:04:00;794.20;1177.60
55331;DHT22;58851;42.984;20.336;2022-08-19T10:06:29;794.30;1177.60
55331;DHT22;58851;42.984;20.336;2022-08-19T10:08:59;794.50;1177.60
55331;DHT22;58851;42.984;20.336;2022-08-19T10:11:25;819.20;1177.60
55331;DHT22;58851;42.984;20.336;2022-08-19T10:13:52;819.30;1152.00
55331;DHT22;58851;42.984;20.336;2022-08-19T10:16:20;819.50;1152.00
55331;DHT22;58851;42.984;20.336;2022-08-19T10:18:50;819.60;1075.20
55331;DHT22;58851;42.984;20.336;2022-08-19T10:21:21;819.70;1075.20
55331;DHT22;58851;42.984;20.336;2022-08-19T10:23:50;819.70;1100.80
55331;DHT22;58851;42.984;20.336;2022-08-19T10:26:21;819.70;1024.00
55331;DHT22;58851;42.984;20.336;2022-08-19T10:28:48;819.90;1049.60
55331;DHT22;58851;42.984;20.336;2022-08-19T10:31:20;819.90;998.40
55331;DHT22;58851;42.984;20.336;2022-08-19T10:33:47;819.90;998.40
55331;DHT22;58851;42.984;20.336;2022-08-19T10:36:22;820.00;998.40
55331;DHT22;58851;42.984;20.336;2022-08-19T10:38:51;844.80;1024.00
55331;DHT22;58851;42.984;20.336;2022-08-19T10:41:22;820.10;998.40
55331;DHT22;58851;42.984;20.336;2022-08-19T10:43:51;844.80;1024.00
55331;DHT22;58851;42.984;20.336;2022-08-19T10:46:21;845.00;972.80
55331;DHT22;58851;42.984;20.336;2022-08-19T10:48:48;845.10;947.20
55331;DHT22;58851;42.984;20.336;2022-08-19T10:51:14;845.30;947.20
55331;DHT22;58851;42.984;20.336;2022-08-19T10:53:59;845.50;998.40
55331;DHT22;58851;42.984;20.336;2022-08-19T10:56:27;845.50;998.40
55331;DHT22;58851;42.984;20.336;2022-08-19T10:59:12;845.60;1024.00
55331;DHT22;58851;42.984;20.336;2022-08-19T11:01:41;845.70;1024.00
55331;DHT22;58851;42.984;20.336;2022-08-19T11:04:07;845.70;972.80
55331;DHT22;58851;42.984;20.336;2022-08-19T11:06:39;870.40;1024.00
55331;DHT22;58851;42.984;20.336;2022-08-19T11:09:07;870.60;947.20
55331;DHT22;58851;42.984;20.336;2022-08-19T11:11:34;870.70;972.80
55331;DHT22;58851;42.984;20.336;2022-08-19T11:14:13;870.70;998.40
55331;DHT22;58851;42.984;20.336;2022-08-19T11:16:40;870.70;972.80
55331;DHT22;58851;42.984;20.336;2022-08-19T11:19:07;870.80;972.80
55331;DHT22;58851;42.984;20.336;2022-08-19T11:21:37;870.90;921.60
55331;DHT22;58851;42.984;20.336;2022-08-19T11:24:14;870.90;921.60
55331;DHT22;58851;42.984;20.336;2022-08-19T11:26:43;870.90;947.20
55331;DHT22;58851;42.984;20.336;2022-08-19T11:29:10;871.10;870.40
55331;DHT22;58851;42.984;20.336;2022-08-19T11:31:40;871.20;896.00
55331;DHT22;58851;42.984;20.336;2022-08-19T11:34:09;896.00;921.60
55331;DHT22;58851;42.984;20.336;2022-08-19T11:36:37;896.00;896.00
55331;DHT22;58851;42.984;20.336;2022-08-19T11:39:06;896.10;896.00
55331;DHT22;58851;42.984;20.336;2022-08-19T11:41:32;896.40;870.40
55331;DHT22;58851;42.984;20.336;2022-08-19T11:43:58;896.50;896.00
55331;DHT22;58851;42.984;20.336;2022-08-19T11:46:25;896.60;870.40
55331;DHT22;58851;42.984;20.336;2022-08-19T11:48:52;896.80;896.00
55331;DHT22;58851;42.984;20.336;2022-08-19T11:51:22;896.90;870.40
55331;DHT22;58851;42.984;20.336;2022-08-19T11:53:50;921.60;870.40
55331;DHT22;58851;42.984;20.336;2022-08-19T11:56:17;921.80;870.40
55331;DHT22;58851;42.984;20.336;2022-08-19T11:58:44;921.80;896.00
55331;DHT22;58851;42.984;20.336;2022-08-19T12:01:15;921.80;870.40
55331;DHT22;58851;42.984;20.336;2022-08-19T12:03:43;921.80;870.40
55331;DHT22;58851;42.984;20.336;2022-08-19T12:06:11;921.90;870.40
55331;DHT22;58851;42.984;20.336;2022-08-19T12:08:41;922.00;870.40
55331;DHT22;58851;42.984;20.336;2022-08-19T12:11:09;922.20;844.80
55331;DHT22;58851;42.984;20.336;2022-08-19T12:13:36;922.30;844.80
55331;DHT22;58851;42.984;20.336;2022-08-19T12:16:08;922.50;844.80
55331;DHT22;58851;42.984;20.336;2022-08-19T12:18:37;947.30;870.40
55331;DHT22;58851;42.984;20.336;2022-08-19T12:21:03;947.60;844.80
55331;DHT22;58851;42.984;20.336;2022-08-19T12:23:29;947.70;870.40
55331;DHT22;58851;42.984;20.336;2022-08-19T12:25:56;947.80;870.40
55331;DHT22;58851;42.984;20.336;2022-08-19T12:28:23;947.90;844.80
55331;DHT22;58851;42.984;20.336;2022-08-19T12:30:50;948.00;870.40
55331;DHT22;58851;42.984;20.336;2022-08-19T12:33:17;972.80;870.40
55331;DHT22;58851;42.984;20.336;2022-08-19T12:35:46;972.80;870.40
55331;DHT22;58851;42.984;20.336;2022-08-19T12:38:13;973.00;844.80
55331;DHT22;58851;42.984;20.336;2022-08-19T12:40:40;973.10;819.20
55331;DHT22;58851;42.984;20.336;2022-08-19T12:43:09;973.30;819.20
55331;DHT22;58851;42.984;20.336;2022-08-19T12:45:37;973.40;793.60
55331;DHT22;58851;42.984;20.336;2022-08-19T12:48:04;973.50;819.20
55331;DHT22;58851;42.984;20.336;2022-08-19T12:50:30;973.20;819.20
55331;DHT22;58851;42.984;20.336;2022-08-19T12:52:56;972.80;819.20
55331;DHT22;58851;42.984;20.336;2022-08-19T12:55:22;947.80;844.80
55331;DHT22;58851;42.984;20.336;2022-08-19T12:57:48;947.50;870.40
55331;DHT22;58851;42.984;20.336;2022-08-19T13:00:19;947.20;844.80
55331;DHT22;58851;42.984;20.336;2022-08-19T13:02:48;922.10;870.40
55331;DHT22;58851;42.984;20.336;2022-08-19T13:05:18;921.70;896.00
55331;DHT22;58851;42.984;20.336;2022-08-19T13:07:49;896.90;870.40
55331;DHT22;58851;42.984;20.336;2022-08-19T13:10:18;896.50;870.40
55331;DHT22;58851;42.984;20.336;2022-08-19T13:12:46;896.30;921.60
55331;DHT22;58851;42.984;20.336;2022-08-19T13:15:14;896.10;921.60
55331;DHT22;58851;42.984;20.336;2022-08-19T13:17:41;871.20;947.20
55331;DHT22;58851;42.984;20.336;2022-08-19T13:20:10;871.00;947.20
55331;DHT22;58851;42.984;20.336;2022-08-19T13:22:37;870.90;947.20
55331;DHT22;58851;42.984;20.336;2022-08-19T13:25:05;870.80;947.20
55331;DHT22;58851;42.984;20.336;2022-08-19T13:27:31;870.60;972.80
55331;DHT22;58851;42.984;20.336;2022-08-19T13:29:57;870.50;947.20
55331;DHT22;58851;42.984;20.336;2022-08-19T13:32:41;845.70;972.80
55331;DHT22;58851;42.984;20.336;2022-08-19T13:35:25;845.50;947.20
55331;DHT22;58851;42.984;20.336;2022-08-19T13:37:51;845.50;947.20
55331;DHT22;58851;42.984;20.336;2022-08-19T13:40:20;845.30;972.80
55331;DHT22;58851;42.984;20.336;2022-08-19T13:42:50;845.30;972.80
55331;DHT22;58851;42.984;20.336;2022-08-19T13:45:19;845.20;947.20
55331;DHT22;58851;42.984;20.336;2022-08-19T13:47:47;845.00;972.80
55331;DHT22;58851;42.984;20.336;2022-08-19T13:50:15;844.80;998.40
55331;DHT22;58851;42.984;20.336;2022-08-19T13:52:42;844.80;1024.00
55331;DHT22;58851;42.984;20.336;2022-08-19T13:55:10;820.10;1024.00
55331;DHT22;58851;42.984;20.336;2022-08-19T13:57:36;819.90;1024.00
55331;DHT22;58851;42.984;20.336;2022-08-19T14:00:08;819.70;1024.00
55331;DHT22;58851;42.984;20.336;2022-08-19T14:02:38;819.70;998.40
55331;DHT22;58851;42.984;20.336;2022-08-19T14:05:11;819.60;998.40
55331;DHT22;58851;42.984;20.336;2022-08-19T14:07:37;819.70;1024.00
55331;DHT22;58851;42.984;20.336;2022-08-19T14:10:06;819.50;1024.00
55331;DHT22;58851;42.984;20.336;2022-08-19T14:12:32;819.60;1024.00
55331;DHT22;58851;42.984;20.336;2022-08-19T14:14:59;819.60;1024.00
55331;DHT22;58851;42.984;20.336;2022-08-19T14:17:25;819.70;998.40
55331;DHT22;58851;42.984;20.336;2022-08-19T14:19:58;845.70;972.80
55331;DHT22;58851;42.984;20.336;2022-08-19T14:22:26;896.40;896.00
55331;DHT22;58851;42.984;20.336;2022-08-19T14:24:52;896.80;870.40
55331;DHT22;58851;42.984;20.336;2022-08-19T14:27:18;896.70;870.40
55331;DHT22;58851;42.984;20.336;2022-08-19T14:29:43;922.10;896.00
55331;DHT22;58851;42.984;20.336;2022-08-19T14:32:10;922.40;870.40
55331;DHT22;58851;42.984;20.336;2022-08-19T14:34:37;947.70;844.80
55331;DHT22;58851;42.984;20.336;2022-08-19T14:37:03;972.90;844.80
55331;DHT22;58851;42.984;20.336;2022-08-19T14:39:29;973.70;793.60
55331;DHT22;58851;42.984;20.336;2022-08-19T14:41:55;998.90;768.00
55331;DHT22;58851;42.984;20.336;2022-08-19T14:44:21;999.20;768.00
55331;DHT22;58851;42.984;20.336;2022-08-19T14:46:48;1024.20;768.00
55331;DHT22;58851;42.984;20.336;2022-08-19T14:49:13;1024.20;716.80
55331;DHT22;58851;42.984;20.336;2022-08-19T14:51:39;1024.80;716.80
55331;DHT22;58851;42.984;20.336;2022-08-19T14:54:05;1049.60;742.40
55331;DHT22;58851;42.984;20.336;2022-08-19T14:56:31;1050.00;716.80
55331;DHT22;58851;42.984;20.336;2022-08-19T14:58:57;1050.50;716.80
55331;DHT22;58851;42.984;20.336;2022-08-19T15:01:26;1075.20;742.40
55331;DHT22;58851;42.984;20.336;2022-08-19T15:03:52;1075.70;716.80
55331;DHT22;58851;42.984;20.336;2022-08-19T15:06:19;1075.70;742.40